createdAt,value
2023-05-19T00:00:45.026Z,1024.26
2023-05-19T00:01:43.707Z,1024.24
2023-05-19T00:02:43.697Z,1024.24
2023-05-19T00:03:43.670Z,1024.24
2023-05-19T00:04:43.577Z,1024.22
2023-05-19T00:05:43.652Z,1024.27
2023-05-19T00:06:43.497Z,1024.25
2023-05-19T00:07:43.468Z,1024.24
2023-05-19T00:08:43.439Z,1024.24
2023-05-19T00:09:43.392Z,1024.30
2023-05-19T00:10:43.368Z,1024.26
2023-05-19T00:11:43.440Z,1024.25
2023-05-19T00:12:43.328Z,1024.21
2023-05-19T00:13:43.260Z,1024.24
2023-05-19T00:14:43.773Z,1024.21
2023-05-19T00:15:43.270Z,1024.20
2023-05-19T00:16:43.235Z,1024.22
2023-05-19T00:17:43.140Z,1024.21
2023-05-19T00:18:43.099Z,1024.21
2023-05-19T00:19:43.067Z,1024.19
2023-05-19T00:20:43.020Z,1024.20
2023-05-19T00:21:43.063Z,1024.22
2023-05-19T00:22:42.961Z,1024.18
2023-05-19T00:23:42.918Z,1024.20
2023-05-19T00:24:42.903Z,1024.21
2023-05-19T00:25:42.877Z,1024.25
2023-05-19T00:26:42.815Z,1024.23
2023-05-19T00:27:42.850Z,1024.25
2023-05-19T00:28:42.750Z,1024.25
2023-05-19T00:29:42.713Z,1024.26
2023-05-19T00:30:42.677Z,1024.28
2023-05-19T00:31:42.676Z,1024.27
2023-05-19T00:32:42.640Z,1024.25
2023-05-19T00:33:42.642Z,1024.22
2023-05-19T00:34:42.540Z,1024.27
2023-05-19T00:35:42.503Z,1024.21
2023-05-19T00:36:42.474Z,1024.19
2023-05-19T00:37:42.436Z,1024.18
2023-05-19T00:38:42.424Z,1024.20
2023-05-19T00:39:42.442Z,1024.19
2023-05-19T00:40:42.332Z,1024.17
2023-05-19T00:41:42.304Z,1024.14
2023-05-19T00:42:42.304Z,1024.16
2023-05-19T00:43:42.235Z,1024.17
2023-05-19T00:44:42.239Z,1024.17
2023-05-19T00:45:42.438Z,1024.14
2023-05-19T00:46:42.148Z,1024.18
2023-05-19T00:47:42.122Z,1024.19
2023-05-19T00:48:42.061Z,1024.17
2023-05-19T00:49:42.033Z,1024.16
2023-05-19T00:50:41.995Z,1024.19
2023-05-19T00:51:42.509Z,1024.15
2023-05-19T00:52:41.946Z,1024.18
2023-05-19T00:53:41.887Z,1024.17
2023-05-19T00:54:41.863Z,1024.15
2023-05-19T00:55:41.822Z,1024.17
2023-05-19T00:56:41.816Z,1024.15
2023-05-19T00:57:41.841Z,1024.13
2023-05-19T00:58:41.730Z,1024.17
2023-05-19T00:59:41.681Z,1024.14
2023-05-19T01:00:41.677Z,1024.10
2023-05-19T01:01:41.614Z,1024.12
2023-05-19T01:02:41.652Z,1024.12
2023-05-19T01:03:41.649Z,1024.12
2023-05-19T01:04:41.503Z,1024.05
2023-05-19T01:05:41.476Z,1024.09
2023-05-19T01:06:41.483Z,1024.09
2023-05-19T01:07:41.410Z,1024.12
2023-05-19T01:08:41.385Z,1024.14
2023-05-19T01:09:41.395Z,1024.13
2023-05-19T01:10:41.309Z,1024.15
2023-05-19T01:11:41.254Z,1024.12
2023-05-19T01:12:41.217Z,1024.15
2023-05-19T01:13:42.222Z,1024.13
2023-05-19T01:14:41.156Z,1024.15
2023-05-19T01:15:41.178Z,1024.14
2023-05-19T01:16:41.129Z,1024.14
2023-05-19T01:17:41.072Z,1024.14
2023-05-19T01:18:41.045Z,1024.13
2023-05-19T01:19:41.179Z,1024.12
2023-05-19T01:20:40.945Z,1024.10
2023-05-19T01:21:40.991Z,1024.10
2023-05-19T01:22:40.882Z,1024.08
2023-05-19T01:23:40.845Z,1024.12
2023-05-19T01:24:40.822Z,1024.09
2023-05-19T01:25:40.781Z,1024.10
2023-05-19T01:26:40.795Z,1024.13
2023-05-19T01:27:40.711Z,1024.13
2023-05-19T01:28:40.669Z,1024.10
2023-05-19T01:29:40.637Z,1024.12
2023-05-19T01:30:40.594Z,1024.12
2023-05-19T01:31:40.615Z,1024.17
2023-05-19T01:32:40.669Z,1024.18
2023-05-19T01:33:40.513Z,1024.15
2023-05-19T01:34:40.472Z,1024.16
2023-05-19T01:35:40.436Z,1024.14
2023-05-19T01:36:40.419Z,1024.15
2023-05-19T01:37:40.466Z,1024.15
2023-05-19T01:38:40.334Z,1024.14
2023-05-19T01:39:40.311Z,1024.13
2023-05-19T01:40:40.260Z,1024.13
2023-05-19T01:41:40.248Z,1024.16
2023-05-19T01:42:40.209Z,1024.14
2023-05-19T01:43:40.566Z,1024.12
2023-05-19T01:44:40.112Z,1024.15
2023-05-19T01:45:40.151Z,1024.10
2023-05-19T01:46:40.064Z,1024.15
2023-05-19T01:47:40.081Z,1024.12
2023-05-19T01:48:40.000Z,1024.13
2023-05-19T01:49:39.999Z,1024.15
2023-05-19T01:50:39.930Z,1024.16
2023-05-19T01:51:39.877Z,1024.16
2023-05-19T01:52:39.869Z,1024.16
2023-05-19T01:53:39.828Z,1024.15
2023-05-19T01:54:39.771Z,1024.20
2023-05-19T01:55:39.855Z,1024.17
2023-05-19T01:56:39.741Z,1024.16
2023-05-19T01:57:39.667Z,1024.19
2023-05-19T01:58:39.638Z,1024.19
2023-05-19T01:59:39.607Z,1024.22
2023-05-19T02:00:39.570Z,1024.22
2023-05-19T02:01:39.642Z,1024.17
2023-05-19T02:02:39.603Z,1024.21
2023-05-19T02:03:39.481Z,1024.23
2023-05-19T02:04:39.491Z,1024.22
2023-05-19T02:05:39.392Z,1024.17
2023-05-19T02:06:39.451Z,1024.21
2023-05-19T02:07:39.336Z,1024.18
2023-05-19T02:08:39.297Z,1024.19
2023-05-19T02:09:39.253Z,1024.19
2023-05-19T02:10:39.214Z,1024.19
2023-05-19T02:11:39.164Z,1024.20
2023-05-19T02:12:39.197Z,1024.19
2023-05-19T02:13:39.105Z,1024.19
2023-05-19T02:14:39.078Z,1024.19
2023-05-19T02:15:39.093Z,1024.17
2023-05-19T02:16:38.997Z,1024.15
2023-05-19T02:17:39.066Z,1024.12
2023-05-19T02:18:38.978Z,1024.14
2023-05-19T02:19:38.884Z,1024.13
2023-05-19T02:20:38.868Z,1024.11
2023-05-19T02:21:38.825Z,1024.13
2023-05-19T02:22:38.788Z,1024.13
2023-05-19T02:23:38.809Z,1024.11
2023-05-19T02:24:38.724Z,1024.11
2023-05-19T02:25:38.681Z,1024.11
2023-05-19T02:26:38.650Z,1024.12
2023-05-19T02:27:38.616Z,1024.10
2023-05-19T02:28:38.674Z,1024.10
2023-05-19T02:29:38.542Z,1024.09
2023-05-19T02:30:38.505Z,1024.09
2023-05-19T02:31:38.556Z,1024.06
2023-05-19T02:32:38.504Z,1024.09
2023-05-19T02:33:38.389Z,1024.03
2023-05-19T02:34:38.419Z,1024.06
2023-05-19T02:35:38.328Z,1024.03
2023-05-19T02:36:38.304Z,1024.01
2023-05-19T02:37:38.255Z,1024.04
2023-05-19T02:38:38.268Z,1024.05
2023-05-19T02:39:38.178Z,1024.05
2023-05-19T02:40:38.207Z,1024.08
2023-05-19T02:41:38.118Z,1024.05
2023-05-19T02:42:38.130Z,1024.08
2023-05-19T02:43:38.070Z,1024.06
2023-05-19T02:44:38.018Z,1024.06
2023-05-19T02:45:38.044Z,1024.03
2023-05-19T02:46:37.986Z,1024.06
2023-05-19T02:47:37.935Z,1024.07
2023-05-19T02:48:37.870Z,1024.04
2023-05-19T02:49:37.886Z,1024.11
2023-05-19T02:50:37.800Z,1024.04
2023-05-19T02:51:37.786Z,1024.05
2023-05-19T02:52:37.727Z,1024.06
2023-05-19T02:53:37.711Z,1024.04
2023-05-19T02:54:37.675Z,1024.01
2023-05-19T02:55:37.693Z,1024.00
2023-05-19T02:56:37.585Z,1023.99
2023-05-19T02:57:37.547Z,1023.98
2023-05-19T02:58:37.521Z,1024.02
2023-05-19T02:59:37.486Z,1023.96
2023-05-19T03:00:37.491Z,1023.97
2023-05-19T03:01:38.326Z,1024.00
2023-05-19T03:02:37.443Z,1024.02
2023-05-19T03:03:37.436Z,1023.99
2023-05-19T03:04:37.306Z,1023.98
2023-05-19T03:05:37.266Z,1023.96
2023-05-19T03:06:37.290Z,1023.97
2023-05-19T03:07:37.203Z,1023.96
2023-05-19T03:08:37.695Z,1024.00
2023-05-19T03:09:37.132Z,1023.98
2023-05-19T03:10:37.105Z,1023.98
2023-05-19T03:11:37.058Z,1023.98
2023-05-19T03:12:37.083Z,1024.01
2023-05-19T03:13:36.990Z,1023.99
2023-05-19T03:14:36.967Z,1023.95
2023-05-19T03:15:36.973Z,1023.98
2023-05-19T03:16:36.977Z,1023.99
2023-05-19T03:17:37.043Z,1023.98
2023-05-19T03:18:36.894Z,1023.98
2023-05-19T03:19:36.790Z,1024.02
2023-05-19T03:20:36.753Z,1024.03
2023-05-19T03:21:36.719Z,1023.97
2023-05-19T03:22:36.748Z,1024.03
2023-05-19T03:23:36.656Z,1023.98
2023-05-19T03:24:36.620Z,1023.98
2023-05-19T03:25:36.583Z,1023.99
2023-05-19T03:26:36.537Z,1023.94
2023-05-19T03:27:36.504Z,1024.00
2023-05-19T03:28:36.534Z,1024.00
2023-05-19T03:29:36.444Z,1024.02
2023-05-19T03:30:36.411Z,1024.00
2023-05-19T03:31:36.356Z,1024.02
2023-05-19T03:32:36.497Z,1023.98
2023-05-19T03:33:36.348Z,1023.98
2023-05-19T03:34:36.320Z,1024.01
2023-05-19T03:35:36.235Z,1024.00
2023-05-19T03:36:36.190Z,1023.97
2023-05-19T03:37:36.149Z,1023.96
2023-05-19T03:38:36.185Z,1023.99
2023-05-19T03:39:36.091Z,1023.95
2023-05-19T03:40:36.048Z,1023.95
2023-05-19T03:41:36.014Z,1023.93
2023-05-19T03:42:35.980Z,1023.96
2023-05-19T03:43:36.008Z,1023.95
2023-05-19T03:44:35.981Z,1023.91
2023-05-19T03:45:36.817Z,1023.92
2023-05-19T03:46:35.827Z,1023.91
2023-05-19T03:47:35.860Z,1023.97
2023-05-19T03:48:35.775Z,1023.95
2023-05-19T03:49:35.737Z,1023.95
2023-05-19T03:50:35.748Z,1023.93
2023-05-19T03:51:35.711Z,1023.93
2023-05-19T03:52:35.628Z,1023.91
2023-05-19T03:53:35.638Z,1023.94
2023-05-19T03:54:35.558Z,1023.92
2023-05-19T03:55:35.526Z,1023.92
2023-05-19T03:56:35.546Z,1023.92
2023-05-19T03:57:35.451Z,1023.96
2023-05-19T03:58:35.417Z,1023.98
2023-05-19T03:59:35.389Z,1024.02
2023-05-19T04:00:35.655Z,1023.99
2023-05-19T04:01:35.313Z,1024.00
2023-05-19T04:02:35.385Z,1023.99
2023-05-19T04:03:35.259Z,1024.01
2023-05-19T04:04:35.253Z,1023.99
2023-05-19T04:05:35.194Z,1024.01
2023-05-19T04:06:35.138Z,1023.98
2023-05-19T04:07:35.101Z,1023.98
2023-05-19T04:08:35.153Z,1023.99
2023-05-19T04:09:35.072Z,1023.99
2023-05-19T04:10:35.007Z,1024.01
2023-05-19T04:11:34.975Z,1024.00
2023-05-19T04:12:34.937Z,1023.98
2023-05-19T04:13:34.961Z,1024.02
2023-05-19T04:14:34.885Z,1024.03
2023-05-19T04:15:34.877Z,1024.01
2023-05-19T04:16:34.856Z,1024.02
2023-05-19T04:17:34.805Z,1024.04
2023-05-19T04:18:34.725Z,1024.08
2023-05-19T04:19:34.757Z,1024.00
2023-05-19T04:20:34.821Z,1024.02
2023-05-19T04:21:34.629Z,1024.02
2023-05-19T04:22:34.598Z,1024.05
2023-05-19T04:23:34.559Z,1024.07
2023-05-19T04:24:34.585Z,1024.04
2023-05-19T04:25:34.494Z,1024.06
2023-05-19T04:26:34.572Z,1024.05
2023-05-19T04:27:34.433Z,1024.05
2023-05-19T04:28:34.407Z,1024.06
2023-05-19T04:29:34.361Z,1024.07
2023-05-19T04:30:34.583Z,1024.08
2023-05-19T04:31:34.500Z,1024.06
2023-05-19T04:32:34.273Z,1024.07
2023-05-19T04:33:34.235Z,1024.09
2023-05-19T04:34:34.216Z,1024.07
2023-05-19T04:35:34.156Z,1024.06
2023-05-19T04:36:34.264Z,1024.09
2023-05-19T04:37:34.089Z,1024.11
2023-05-19T04:38:34.051Z,1024.10
2023-05-19T04:39:34.026Z,1024.13
2023-05-19T04:40:34.170Z,1024.16
2023-05-19T04:41:33.956Z,1024.14
2023-05-19T04:42:33.990Z,1024.16
2023-05-19T04:43:33.882Z,1024.14
2023-05-19T04:44:33.859Z,1024.11
2023-05-19T04:45:33.893Z,1024.13
2023-05-19T04:46:33.941Z,1024.15
2023-05-19T04:47:33.814Z,1024.10
2023-05-19T04:48:33.840Z,1024.14
2023-05-19T04:49:33.690Z,1024.12
2023-05-19T04:50:33.893Z,1024.14
2023-05-19T04:51:33.623Z,1024.16
2023-05-19T04:52:33.604Z,1024.11
2023-05-19T04:53:33.554Z,1024.11
2023-05-19T04:54:33.594Z,1024.10
2023-05-19T04:55:33.510Z,1024.12
2023-05-19T04:56:33.452Z,1024.10
2023-05-19T04:57:33.430Z,1024.08
2023-05-19T04:58:33.421Z,1024.11
2023-05-19T04:59:33.373Z,1024.13
2023-05-19T05:00:33.643Z,1024.13
2023-05-19T05:01:33.330Z,1024.10
2023-05-19T05:02:33.285Z,1024.12
2023-05-19T05:03:33.335Z,1024.13
2023-05-19T05:04:33.500Z,1024.17
2023-05-19T05:05:33.155Z,1024.13
2023-05-19T05:06:33.110Z,1024.17
2023-05-19T05:07:33.102Z,1024.14
2023-05-19T05:08:33.061Z,1024.17
2023-05-19T05:09:33.030Z,1024.14
2023-05-19T05:10:33.151Z,1024.16
2023-05-19T05:11:32.962Z,1024.16
2023-05-19T05:12:32.956Z,1024.14
2023-05-19T05:13:32.893Z,1024.17
2023-05-19T05:14:32.860Z,1024.18
2023-05-19T05:15:32.835Z,1024.21
2023-05-19T05:16:32.911Z,1024.20
2023-05-19T05:17:32.822Z,1024.22
2023-05-19T05:18:32.725Z,1024.21
2023-05-19T05:19:32.833Z,1024.23
2023-05-19T05:20:32.880Z,1024.28
2023-05-19T05:21:32.638Z,1024.32
2023-05-19T05:22:32.652Z,1024.33
2023-05-19T05:23:32.559Z,1024.31
2023-05-19T05:24:33.316Z,1024.31
2023-05-19T05:25:32.649Z,1024.29
2023-05-19T05:26:32.465Z,1024.31
2023-05-19T05:27:32.514Z,1024.27
2023-05-19T05:28:32.409Z,1024.26
2023-05-19T05:29:32.386Z,1024.24
2023-05-19T05:30:32.347Z,1024.26
2023-05-19T05:31:32.312Z,1024.24
2023-05-19T05:32:32.369Z,1024.24
2023-05-19T05:33:32.337Z,1024.24
2023-05-19T05:34:32.218Z,1024.24
2023-05-19T05:35:32.311Z,1024.26
2023-05-19T05:36:32.177Z,1024.23
2023-05-19T05:37:32.141Z,1024.30
2023-05-19T05:38:32.100Z,1024.30
2023-05-19T05:39:32.159Z,1024.28
2023-05-19T05:40:32.023Z,1024.29
2023-05-19T05:41:32.004Z,1024.24
2023-05-19T05:42:31.966Z,1024.32
2023-05-19T05:43:31.935Z,1024.31
2023-05-19T05:44:31.903Z,1024.32
2023-05-19T05:45:32.658Z,1024.28
2023-05-19T05:46:31.934Z,1024.25
2023-05-19T05:47:32.393Z,1024.26
2023-05-19T05:48:31.833Z,1024.21
2023-05-19T05:49:31.752Z,1024.21
2023-05-19T05:50:31.736Z,1024.25
2023-05-19T05:51:31.744Z,1024.20
2023-05-19T05:52:31.654Z,1024.18
2023-05-19T05:53:31.636Z,1024.19
2023-05-19T05:54:31.598Z,1024.21
2023-05-19T05:55:31.761Z,1024.21
2023-05-19T05:56:31.539Z,1024.15
2023-05-19T05:57:31.599Z,1024.17
2023-05-19T05:58:31.472Z,1024.18
2023-05-19T05:59:31.453Z,1024.18
2023-05-19T06:00:31.680Z,1024.16
2023-05-19T06:01:33.039Z,1024.19
2023-05-19T06:02:31.439Z,1024.18
2023-05-19T06:03:31.964Z,1024.20
2023-05-19T06:04:31.290Z,1024.17
2023-05-19T06:05:31.388Z,1024.15
2023-05-19T06:06:31.303Z,1024.15
2023-05-19T06:07:31.209Z,1024.13
2023-05-19T06:08:31.183Z,1024.13
2023-05-19T06:09:31.156Z,1024.14
2023-05-19T06:10:31.281Z,1024.11
2023-05-19T06:11:31.139Z,1024.10
2023-05-19T06:12:31.102Z,1024.13
2023-05-19T06:13:31.026Z,1024.15
2023-05-19T06:14:30.997Z,1024.16
2023-05-19T06:15:30.974Z,1024.15
2023-05-19T06:16:31.583Z,1024.17
2023-05-19T06:17:30.986Z,1024.17
2023-05-19T06:18:30.868Z,1024.19
2023-05-19T06:19:30.931Z,1024.17
2023-05-19T06:20:30.968Z,1024.18
2023-05-19T06:21:30.803Z,1024.17
2023-05-19T06:22:30.762Z,1024.16
2023-05-19T06:23:30.785Z,1024.14
2023-05-19T06:24:30.701Z,1024.12
2023-05-19T06:25:30.942Z,1024.13
2023-05-19T06:26:30.622Z,1024.14
2023-05-19T06:27:32.199Z,1024.14
2023-05-19T06:28:30.561Z,1024.14
2023-05-19T06:29:30.581Z,1024.16
2023-05-19T06:30:30.658Z,1024.14
2023-05-19T06:31:30.514Z,1024.18
2023-05-19T06:32:30.459Z,1024.15
2023-05-19T06:33:30.425Z,1024.18
2023-05-19T06:34:30.380Z,1024.16
2023-05-19T06:35:30.396Z,1024.14
2023-05-19T06:36:30.317Z,1024.18
2023-05-19T06:37:30.287Z,1024.22
2023-05-19T06:38:30.249Z,1024.20
2023-05-19T06:39:30.219Z,1024.17
2023-05-19T06:40:30.280Z,1024.18
2023-05-19T06:41:30.307Z,1024.14
2023-05-19T06:42:30.126Z,1024.13
2023-05-19T06:43:30.100Z,1024.23
2023-05-19T06:44:34.848Z,1024.18
2023-05-19T06:45:34.863Z,1024.19
2023-05-19T06:46:31.034Z,1024.19
2023-05-19T06:47:30.050Z,1024.21
2023-05-19T06:48:30.028Z,1024.17
2023-05-19T06:49:29.928Z,1024.21
2023-05-19T06:50:29.954Z,1024.21
2023-05-19T06:51:29.853Z,1024.18
2023-05-19T06:52:29.870Z,1024.17
2023-05-19T06:53:29.792Z,1024.19
2023-05-19T06:54:29.783Z,1024.17
2023-05-19T06:55:29.726Z,1024.20
2023-05-19T06:56:29.697Z,1024.22
2023-05-19T06:57:29.677Z,1024.26
2023-05-19T06:58:29.690Z,1024.24
2023-05-19T06:59:29.635Z,1024.30
2023-05-19T07:00:34.536Z,1024.29
2023-05-19T07:01:29.565Z,1024.28
2023-05-19T07:02:31.402Z,1024.28
2023-05-19T07:03:33.449Z,1024.27
2023-05-19T07:04:29.567Z,1024.26
2023-05-19T07:05:29.435Z,1024.25
2023-05-19T07:06:29.452Z,1024.24
2023-05-19T07:07:29.399Z,1024.27
2023-05-19T07:08:29.347Z,1024.23
2023-05-19T07:09:29.324Z,1024.20
2023-05-19T07:10:29.354Z,1024.21
2023-05-19T07:11:29.271Z,1024.18
2023-05-19T07:12:29.229Z,1024.19
2023-05-19T07:13:29.194Z,1024.19
2023-05-19T07:14:29.179Z,1024.21
2023-05-19T07:15:29.134Z,1024.20
2023-05-19T07:16:29.225Z,1024.20
2023-05-19T07:17:29.123Z,1024.22
2023-05-19T07:18:29.056Z,1024.24
2023-05-19T07:19:29.052Z,1024.19
2023-05-19T07:20:29.012Z,1024.21
2023-05-19T07:21:28.965Z,1024.21
2023-05-19T07:22:28.979Z,1024.25
2023-05-19T07:23:28.902Z,1024.23
2023-05-19T07:24:28.875Z,1024.22
2023-05-19T07:25:28.851Z,1024.25
2023-05-19T07:26:28.809Z,1024.23
2023-05-19T07:27:28.795Z,1024.19
2023-05-19T07:28:28.809Z,1024.23
2023-05-19T07:29:28.727Z,1024.20
2023-05-19T07:30:28.698Z,1024.22
2023-05-19T07:31:28.686Z,1024.17
2023-05-19T07:32:28.941Z,1024.16
2023-05-19T07:33:28.612Z,1024.16
2023-05-19T07:34:28.631Z,1024.11
2023-05-19T07:35:28.578Z,1024.09
2023-05-19T07:36:28.529Z,1024.10
2023-05-19T07:37:28.492Z,1024.11
2023-05-19T07:38:28.462Z,1024.15
2023-05-19T07:39:28.442Z,1024.15
2023-05-19T07:40:28.438Z,1024.16
2023-05-19T07:41:28.378Z,1024.19
2023-05-19T07:42:28.385Z,1024.19
2023-05-19T07:43:28.321Z,1024.21
2023-05-19T07:44:28.284Z,1024.15
2023-05-19T07:45:28.326Z,1024.16
2023-05-19T07:46:28.634Z,1024.10
2023-05-19T07:47:28.222Z,1024.08
2023-05-19T07:48:28.224Z,1024.07
2023-05-19T07:49:28.133Z,1024.12
2023-05-19T07:50:28.131Z,1024.06
2023-05-19T07:51:28.120Z,1024.06
2023-05-19T07:52:28.081Z,1024.07
2023-05-19T07:53:28.032Z,1024.06
2023-05-19T07:54:28.033Z,1024.08
2023-05-19T07:55:27.958Z,1024.07
2023-05-19T07:56:27.922Z,1024.04
2023-05-19T07:57:27.971Z,1024.10
2023-05-19T07:58:27.892Z,1024.08
2023-05-19T07:59:27.966Z,1024.05
2023-05-19T08:00:27.799Z,1024.01
2023-05-19T08:01:27.803Z,1024.05
2023-05-19T08:02:27.863Z,1024.04
2023-05-19T08:04:27.741Z,1024.07
2023-05-19T08:05:27.677Z,1024.08
2023-05-19T08:06:27.631Z,1024.10
2023-05-19T08:07:27.608Z,1024.11
2023-05-19T08:08:27.783Z,1024.13
2023-05-19T08:09:27.661Z,1024.10
2023-05-19T08:10:27.516Z,1024.12
2023-05-19T08:11:27.554Z,1024.15
2023-05-19T08:12:27.478Z,1024.13
2023-05-19T08:13:27.481Z,1024.13
2023-05-19T08:14:27.414Z,1024.16
2023-05-19T08:15:27.485Z,1024.15
2023-05-19T08:16:27.387Z,1024.11
2023-05-19T08:17:27.377Z,1024.13
2023-05-19T08:18:27.303Z,1024.13
2023-05-19T08:19:27.449Z,1024.15
2023-05-19T08:20:27.258Z,1024.12
2023-05-19T08:21:27.236Z,1024.15
2023-05-19T08:22:27.185Z,1024.16
2023-05-19T08:23:27.174Z,1024.18
2023-05-19T08:24:27.300Z,1024.15
2023-05-19T08:25:27.165Z,1024.17
2023-05-19T08:26:27.113Z,1024.14
2023-05-19T08:27:27.060Z,1024.20
2023-05-19T08:28:27.019Z,1024.18
2023-05-19T08:29:27.023Z,1024.15
2023-05-19T08:30:26.973Z,1024.14
2023-05-19T08:31:27.614Z,1024.14
2023-05-19T08:32:26.952Z,1024.14
2023-05-19T08:33:26.886Z,1024.14
2023-05-19T08:34:27.122Z,1024.14
2023-05-19T08:35:26.847Z,1024.12
2023-05-19T08:36:26.822Z,1024.09
2023-05-19T08:37:26.871Z,1024.15
2023-05-19T08:38:27.241Z,1024.12
2023-05-19T08:39:26.762Z,1024.17
2023-05-19T08:40:26.719Z,1024.11
2023-05-19T08:41:26.691Z,1024.08
2023-05-19T08:42:26.654Z,1024.12
2023-05-19T08:43:26.686Z,1024.11
2023-05-19T08:44:26.625Z,1024.13
2023-05-19T08:45:26.562Z,1024.09
2023-05-19T08:46:26.689Z,1024.05
2023-05-19T08:47:26.544Z,1024.07
2023-05-19T08:48:26.500Z,1024.01
2023-05-19T08:49:26.548Z,1024.01
2023-05-19T08:50:26.443Z,1024.02
2023-05-19T08:51:26.418Z,1024.06
2023-05-19T08:52:26.426Z,1024.04
2023-05-19T08:53:34.060Z,1024.01
2023-05-19T08:54:26.345Z,1024.02
2023-05-19T08:55:26.382Z,1023.97
2023-05-19T08:56:26.315Z,1023.96
2023-05-19T08:57:26.254Z,1023.98
2023-05-19T08:58:26.862Z,1023.94
2023-05-19T08:59:26.203Z,1023.94
2023-05-19T09:00:26.196Z,1023.95
2023-05-19T09:01:26.229Z,1023.94
2023-05-19T09:02:26.142Z,1023.92
2023-05-19T09:03:26.137Z,1023.87
2023-05-19T09:04:27.112Z,1023.91
2023-05-19T09:05:26.054Z,1023.90
2023-05-19T09:06:26.017Z,1023.80
2023-05-19T09:07:26.040Z,1023.86
2023-05-19T09:08:26.050Z,1023.87
2023-05-19T09:09:25.944Z,1023.84
2023-05-19T09:10:27.163Z,1023.83
2023-05-19T09:11:25.894Z,1023.76
2023-05-19T09:12:25.874Z,1023.78
2023-05-19T09:13:25.907Z,1023.78
2023-05-19T09:14:25.809Z,1023.79
2023-05-19T09:15:25.781Z,1023.80
2023-05-19T09:16:27.807Z,1023.77
2023-05-19T09:17:25.886Z,1023.75
2023-05-19T09:18:25.757Z,1023.78
2023-05-19T09:19:25.788Z,1023.71
2023-05-19T09:20:25.728Z,1023.72
2023-05-19T09:21:25.637Z,1023.66
2023-05-19T09:22:25.608Z,1023.69
2023-05-19T09:23:25.585Z,1023.69
2023-05-19T09:24:25.546Z,1023.71
2023-05-19T09:25:26.088Z,1023.75
2023-05-19T09:26:25.492Z,1023.67
2023-05-19T09:27:25.493Z,1023.66
2023-05-19T09:28:25.564Z,1023.63
2023-05-19T09:29:25.412Z,1023.59
2023-05-19T09:30:25.399Z,1023.62
2023-05-19T09:31:25.427Z,1023.59
2023-05-19T09:32:25.491Z,1023.53
2023-05-19T09:33:25.325Z,1023.63
2023-05-19T09:34:25.291Z,1023.62
2023-05-19T09:35:25.279Z,1023.57
2023-05-19T09:36:25.222Z,1023.55
2023-05-19T09:37:25.272Z,1023.65
2023-05-19T09:38:25.177Z,1023.61
2023-05-19T09:39:25.155Z,1023.59
2023-05-19T09:40:25.124Z,1023.53
2023-05-19T09:41:25.089Z,1023.50
2023-05-19T09:42:25.069Z,1023.56
2023-05-19T09:43:25.256Z,1023.55
2023-05-19T09:44:25.014Z,1023.55
2023-05-19T09:45:24.981Z,1023.57
2023-05-19T09:46:25.052Z,1023.50
2023-05-19T09:47:24.956Z,1023.53
2023-05-19T09:48:24.923Z,1023.56
2023-05-19T09:49:24.943Z,1023.60
2023-05-19T09:50:24.858Z,1023.63
2023-05-19T09:51:24.871Z,1023.49
2023-05-19T09:52:24.862Z,1023.49
2023-05-19T09:53:24.798Z,1023.42
2023-05-19T09:54:24.832Z,1023.41
2023-05-19T09:55:24.872Z,1023.43
2023-05-19T09:56:24.698Z,1023.48
2023-05-19T09:57:24.676Z,1023.46
2023-05-19T09:58:24.664Z,1023.44
2023-05-19T09:59:24.640Z,1023.42
2023-05-19T10:00:24.636Z,1023.42
2023-05-19T10:01:24.616Z,1023.38
2023-05-19T10:02:24.547Z,1023.34
2023-05-19T10:03:24.526Z,1023.34
2023-05-19T10:04:24.519Z,1023.34
2023-05-19T10:05:25.141Z,1023.30
2023-05-19T10:06:24.479Z,1023.37
2023-05-19T10:07:24.402Z,1023.39
2023-05-19T10:08:24.382Z,1023.34
2023-05-19T10:09:24.358Z,1023.38
2023-05-19T10:10:24.316Z,1023.39
2023-05-19T10:11:24.365Z,1023.35
2023-05-19T10:12:24.278Z,1023.35
2023-05-19T10:13:24.265Z,1023.36
2023-05-19T10:14:24.220Z,1023.39
2023-05-19T10:15:24.189Z,1023.35
2023-05-19T10:16:24.183Z,1023.38
2023-05-19T10:17:24.242Z,1023.39
2023-05-19T10:18:24.117Z,1023.32
2023-05-19T10:19:24.253Z,1023.25
2023-05-19T10:20:24.085Z,1023.33
2023-05-19T10:21:24.047Z,1023.33
2023-05-19T10:22:24.044Z,1023.30
2023-05-19T10:23:24.055Z,1023.25
2023-05-19T10:24:24.016Z,1023.30
2023-05-19T10:25:23.934Z,1023.27
2023-05-19T10:26:23.920Z,1023.20
2023-05-19T10:27:23.875Z,1023.28
2023-05-19T10:28:23.875Z,1023.29
2023-05-19T10:29:23.894Z,1023.34
2023-05-19T10:30:23.817Z,1023.26
2023-05-19T10:31:23.794Z,1023.26
2023-05-19T10:32:23.851Z,1023.24
2023-05-19T10:33:23.757Z,1023.24
2023-05-19T10:34:23.707Z,1023.31
2023-05-19T10:35:23.734Z,1023.22
2023-05-19T10:36:23.648Z,1023.21
2023-05-19T10:37:23.648Z,1023.19
2023-05-19T10:38:23.600Z,1023.17
2023-05-19T10:39:23.576Z,1023.19
2023-05-19T10:40:23.541Z,1023.14
2023-05-19T10:41:23.575Z,1023.25
2023-05-19T10:42:23.495Z,1023.23
2023-05-19T10:43:23.460Z,1023.20
2023-05-19T10:44:23.432Z,1023.18
2023-05-19T10:45:23.407Z,1023.10
2023-05-19T10:46:23.487Z,1023.16
2023-05-19T10:47:23.511Z,1023.11
2023-05-19T10:48:23.374Z,1023.11
2023-05-19T10:49:23.309Z,1023.11
2023-05-19T10:50:23.273Z,1023.07
2023-05-19T10:51:23.249Z,1023.05
2023-05-19T10:52:23.467Z,1023.04
2023-05-19T10:53:23.265Z,1023.08
2023-05-19T10:54:23.188Z,1023.14
2023-05-19T10:55:23.154Z,1023.13
2023-05-19T10:56:23.152Z,1023.11
2023-05-19T10:57:23.129Z,1023.09
2023-05-19T10:58:23.078Z,1023.07
2023-05-19T10:59:23.146Z,1023.05
2023-05-19T11:00:23.028Z,1023.09
2023-05-19T11:01:23.011Z,1023.08
2023-05-19T11:02:23.232Z,1023.09
2023-05-19T11:03:22.993Z,1023.07
2023-05-19T11:04:22.974Z,1023.16
2023-05-19T11:05:23.000Z,1023.11
2023-05-19T11:06:22.891Z,1023.13
2023-05-19T11:07:22.873Z,1023.09
2023-05-19T11:08:22.823Z,1023.02
2023-05-19T11:09:34.191Z,1022.99
2023-05-19T11:10:22.798Z,1023.02
2023-05-19T11:11:23.439Z,1023.01
2023-05-19T11:12:24.759Z,1022.99
2023-05-19T11:13:23.196Z,1023.07
2023-05-19T11:14:22.746Z,1023.06
2023-05-19T11:15:22.652Z,1023.01
2023-05-19T11:16:22.742Z,1023.01
2023-05-19T11:17:22.642Z,1022.97
2023-05-19T11:18:22.619Z,1022.93
2023-05-19T11:19:22.824Z,1022.92
2023-05-19T11:20:22.615Z,1022.93
2023-05-19T11:21:22.651Z,1022.88
2023-05-19T11:22:22.501Z,1022.85
2023-05-19T11:23:22.549Z,1022.86
2023-05-19T11:24:22.496Z,1022.88
2023-05-19T11:25:22.435Z,1022.92
2023-05-19T11:26:22.408Z,1022.89
2023-05-19T11:27:22.366Z,1022.94
2023-05-19T11:28:22.342Z,1022.95
2023-05-19T11:29:22.381Z,1022.91
2023-05-19T11:30:22.327Z,1022.92
2023-05-19T11:31:22.297Z,1022.91
2023-05-19T11:32:22.271Z,1022.92
2023-05-19T11:33:22.249Z,1022.91
2023-05-19T11:34:22.270Z,1022.96
2023-05-19T11:35:23.093Z,1022.90
2023-05-19T11:36:22.129Z,1022.87
2023-05-19T11:37:22.119Z,1022.84
2023-05-19T11:38:22.092Z,1022.89
2023-05-19T11:39:22.063Z,1022.83
2023-05-19T11:40:22.198Z,1022.89
2023-05-19T11:41:22.037Z,1022.81
2023-05-19T11:42:22.002Z,1022.82
2023-05-19T11:43:21.971Z,1022.79
2023-05-19T11:44:21.938Z,1022.89
2023-05-19T11:45:21.926Z,1022.82
2023-05-19T11:46:22.013Z,1022.87
2023-05-19T11:47:21.864Z,1022.87
2023-05-19T11:48:21.886Z,1022.84
2023-05-19T11:49:21.826Z,1022.86
2023-05-19T11:50:21.785Z,1022.89
2023-05-19T11:51:21.904Z,1022.88
2023-05-19T11:52:21.877Z,1022.92
2023-05-19T11:53:21.721Z,1022.85
2023-05-19T11:54:21.695Z,1022.85
2023-05-19T11:55:21.668Z,1022.88
2023-05-19T11:56:21.658Z,1022.81
2023-05-19T11:57:21.615Z,1022.73
2023-05-19T11:58:21.639Z,1022.88
2023-05-19T11:59:21.561Z,1022.91
2023-05-19T12:00:21.556Z,1022.89
2023-05-19T12:01:21.519Z,1022.94
2023-05-19T12:02:21.510Z,1022.94
2023-05-19T12:03:21.587Z,1023.03
2023-05-19T12:04:21.502Z,1022.94
2023-05-19T12:05:21.458Z,1023.00
2023-05-19T12:06:21.492Z,1022.93